createdAt,value
2023-05-31T00:03:24.705Z,69.74
2023-05-31T00:23:26.652Z,70.46
2023-05-31T00:43:28.421Z,72.43
2023-05-31T01:03:30.503Z,74.72
2023-05-31T01:23:32.767Z,79.18
2023-05-31T01:43:35.673Z,78.95
2023-05-31T02:03:37.392Z,83.14
2023-05-31T02:23:39.467Z,87.62
2023-05-31T02:43:41.497Z,89.84
2023-05-31T03:03:43.643Z,93.64
2023-05-31T03:23:57.340Z,93.61
2023-05-31T03:43:59.797Z,92.28
2023-05-31T04:04:02.232Z,72.93
2023-05-31T04:24:06.437Z,62.77
2023-05-31T04:44:08.383Z,61.16
2023-05-31T05:04:15.337Z,57.93
2023-05-31T05:24:18.107Z,55.17
2023-05-31T05:44:20.568Z,68.83
2023-05-31T06:04:22.740Z,72.29
2023-05-31T06:24:26.168Z,74.16
2023-05-31T06:44:28.704Z,73.10
2023-05-31T07:04:42.752Z,71.65
2023-05-31T07:24:44.720Z,65.71
2023-05-31T07:44:46.555Z,58.93
2023-05-31T08:04:48.369Z,49.79
2023-05-31T08:24:51.340Z,52.40
2023-05-31T08:44:53.384Z,49.87
2023-05-31T09:04:55.688Z,51.93
2023-05-31T09:24:57.465Z,48.65
2023-05-31T09:44:59.462Z,47.32
2023-05-31T10:05:01.455Z,47.39
2023-05-31T10:25:03.434Z,48.14
2023-05-31T10:45:05.229Z,45.94
2023-05-31T11:05:07.304Z,44.36
2023-05-31T11:25:09.173Z,44.17
2023-05-31T11:45:11.082Z,41.01
2023-05-31T12:05:12.764Z,41.89
2023-05-31T12:25:14.840Z,39.71
2023-05-31T12:45:16.517Z,38.19
2023-05-31T13:05:18.385Z,38.49
2023-05-31T13:25:20.277Z,38.75
2023-05-31T13:45:22.515Z,36.25
2023-05-31T14:05:26.307Z,36.61
2023-05-31T14:25:28.249Z,36.94
2023-05-31T14:45:30.025Z,37.45
2023-05-31T15:05:32.085Z,36.35
2023-05-31T15:25:33.866Z,37.10
2023-05-31T15:45:35.701Z,36.23
2023-05-31T16:05:37.563Z,36.48
2023-05-31T16:25:39.770Z,35.56
2023-05-31T16:45:41.452Z,35.16
2023-05-31T17:05:44.733Z,35.84
2023-05-31T17:25:46.502Z,36.94
2023-05-31T17:46:11.585Z,39.24
2023-05-31T18:06:27.409Z,39.79
2023-05-31T18:26:29.391Z,43.07
2023-05-31T18:46:31.176Z,44.79
2023-05-31T19:06:33.111Z,44.35
2023-05-31T19:26:34.772Z,46.09
2023-05-31T19:46:36.992Z,53.74
2023-05-31T20:06:39.731Z,61.27
2023-05-31T20:26:42.105Z,62.21
2023-05-31T20:46:43.852Z,61.33
2023-05-31T21:06:46.979Z,62.41
2023-05-31T21:26:48.699Z,69.57
2023-05-31T21:46:50.824Z,73.84
2023-05-31T22:06:52.496Z,72.26
2023-05-31T22:26:54.600Z,74.78
2023-05-31T22:46:56.419Z,66.21
2023-05-31T23:06:58.521Z,68.37
2023-05-31T23:27:00.276Z,69.21
2023-05-31T23:47:02.233Z,72.70
